Time;durP1;ratioP1;P1;durP2;ratioP2;P2;SDS_P1;SDS_P2;PMS_P1;PMS_P2;Temp;Humidity;BMP_temperature;BMP_pressure;BME280_temperature;BME280_humidity;BME280_pressure;Samples;Min_cycle;Max_cycle;Signal;HPM_P1;HPM_P2
2021/01/04 00:01:30;;;;;;;6.97;5.60;;;1.20;99.90;;;;;;5012711;28;20189;-92
2021/01/04 00:04:23;;;;;;;7.57;5.20;;;1.20;99.90;;;;;;5011323;28;20293;-91
2021/01/04 00:07:30;;;;;;;7.70;5.23;;;1.20;99.90;;;;;;5015692;28;20232;-90
2021/01/04 00:10:31;;;;;;;6.63;4.93;;;1.20;99.90;;;;;;4952554;29;20204;-90
2021/01/04 00:13:18;;;;;;;6.50;4.90;;;1.20;99.90;;;;;;5031041;28;20228;-91
2021/01/04 00:15:57;;;;;;;7.47;5.33;;;1.20;99.90;;;;;;5009824;28;20237;-92
2021/01/04 00:19:11;;;;;;;7.43;5.33;;;1.20;99.90;;;;;;5030974;28;20189;-89
2021/01/04 00:21:59;;;;;;;5.93;4.47;;;1.20;99.90;;;;;;4979669;28;20189;-89
2021/01/04 00:24:43;;;;;;;6.90;4.70;;;1.20;99.90;;;;;;5030769;28;20297;-89
2021/01/04 00:27:41;;;;;;;6.03;4.73;;;1.20;99.90;;;;;;5030920;28;20213;-92
2021/01/04 00:30:24;;;;;;;7.97;5.33;;;1.20;99.90;;;;;;4968956;28;20647;-91
2021/01/04 00:32:52;;;;;;;7.27;5.27;;;1.10;99.90;;;;;;5010222;28;20197;-90
2021/01/04 00:35:20;;;;;;;8.93;6.50;;;1.10;99.90;;;;;;5030929;28;20654;-89
2021/01/04 00:38:08;;;;;;;8.37;5.03;;;1.10;99.90;;;;;;5009799;28;20182;-89
2021/01/04 00:41:08;;;;;;;6.57;4.50;;;1.00;99.90;;;;;;5014261;28;20176;-91
2021/01/04 00:43:56;;;;;;;7.80;5.20;;;1.00;99.90;;;;;;5030209;28;20350;-92
2021/01/04 00:46:35;;;;;;;6.83;4.80;;;1.00;99.90;;;;;;5030564;28;20184;-90
2021/01/04 00:49:18;;;;;;;6.53;4.80;;;1.00;99.90;;;;;;5030510;28;20177;-91
2021/01/04 00:51:52;;;;;;;6.03;4.20;;;1.00;99.90;;;;;;5009023;28;20171;-91
2021/01/04 00:54:36;;;;;;;6.77;5.37;;;1.00;99.90;;;;;;5030336;28;20216;-91
2021/01/04 00:57:29;;;;;;;6.00;4.80;;;1.00;99.90;;;;;;5011379;28;20183;-91
2021/01/04 01:00:16;;;;;;;6.50;4.73;;;1.00;99.90;;;;;;5015007;28;20165;-90
2021/01/04 01:03:03;;;;;;;6.70;4.87;;;1.00;99.90;;;;;;5008548;28;20205;-90
2021/01/04 01:06:15;;;;;;;6.70;4.87;;;1.00;99.90;;;;;;5030350;28;20186;-89
2021/01/04 01:08:40;;;;;;;6.40;4.37;;;1.00;99.90;;;;;;4957712;28;20175;-91
2021/01/04 01:11:12;;;;;;;7.20;5.00;;;1.00;99.90;;;;;;5005939;28;20189;-91
2021/01/04 01:14:21;;;;;;;8.10;5.27;;;1.00;99.90;;;;;;5007687;28;20204;-90
2021/01/04 01:16:52;;;;;;;6.57;4.97;;;1.10;99.90;;;;;;5011662;28;20237;-92
2021/01/04 01:19:29;;;;;;;7.73;5.37;;;1.10;99.90;;;;;;5013761;28;20174;-91
2021/01/04 01:21:57;;;;;;;7.03;5.07;;;1.10;99.90;;;;;;5010305;28;20182;-90
2021/01/04 01:24:27;;;;;;;8.17;5.73;;;1.10;99.90;;;;;;5030023;28;20218;-92
2021/01/04 01:30:56;;;;;;;8.20;5.47;;;1.10;99.90;;;;;;5014904;28;20208;-93
2021/01/04 01:40:41;;;;;;;9.23;5.53;;;1.10;99.90;;;;;;5014606;28;20153;-90
2021/01/04 01:43:38;;;;;;;9.23;5.70;;;1.10;99.90;;;;;;5011091;28;20269;-90
2021/01/04 01:46:28;;;;;;;9.17;6.03;;;1.10;99.90;;;;;;5010982;28;20263;-90
2021/01/04 01:49:40;;;;;;;11.17;6.77;;;1.10;99.90;;;;;;5009580;28;20198;-90
2021/01/04 01:52:45;;;;;;;10.80;6.53;;;1.10;99.90;;;;;;5014551;28;20242;-91
2021/01/04 01:55:57;;;;;;;10.00;6.53;;;1.10;99.90;;;;;;5012194;28;20210;-92
2021/01/04 01:58:37;;;;;;;11.33;6.80;;;1.10;99.90;;;;;;5005613;28;20178;-90
2021/01/04 02:01:47;;;;;;;12.97;7.60;;;1.20;99.90;;;;;;5029810;28;20540;-91
2021/01/04 02:04:53;;;;;;;12.97;8.77;;;1.20;99.90;;;;;;5011999;28;20572;-93
2021/01/04 02:07:38;;;;;;;10.20;6.33;;;1.20;99.90;;;;;;5013138;28;20193;-91
2021/01/04 02:10:37;;;;;;;11.37;7.17;;;1.30;99.90;;;;;;5014381;28;20164;-91
2021/01/04 02:13:51;;;;;;;10.87;7.50;;;1.20;99.90;;;;;;5009992;28;20203;-91
2021/01/04 02:16:30;;;;;;;10.73;7.03;;;1.20;99.90;;;;;;5012479;28;20181;-90
2021/01/04 02:25:50;;;;;;;9.67;6.10;;;1.40;99.90;;;;;;5014401;28;20207;-93
2021/01/04 02:28:22;;;;;;;9.00;6.67;;;1.40;99.90;;;;;;5012472;28;20347;-90
2021/01/04 02:30:48;;;;;;;9.57;6.33;;;1.40;99.90;;;;;;5008566;28;20192;-91
2021/01/04 02:33:16;;;;;;;9.27;6.70;;;1.30;99.90;;;;;;5029296;28;20199;-90
2021/01/04 02:35:51;;;;;;;10.47;6.73;;;1.30;99.90;;;;;;5007729;28;20268;-90
2021/01/04 02:38:31;;;;;;;10.70;6.90;;;1.40;99.90;;;;;;5029328;28;20265;-90
2021/01/04 02:41:01;;;;;;;8.53;6.13;;;1.40;99.90;;;;;;5009901;28;20186;-91
2021/01/04 02:43:35;;;;;;;9.17;6.30;;;1.30;99.90;;;;;;5004914;28;20740;-91
2021/01/04 02:46:09;;;;;;;9.23;6.00;;;1.30;99.90;;;;;;5029120;28;20182;-90
2021/01/04 02:49:22;;;;;;;9.70;6.73;;;1.40;99.90;;;;;;5013975;28;20170;-91
2021/01/04 02:52:08;;;;;;;8.80;6.30;;;1.30;99.90;;;;;;5013796;28;20175;-89
2021/01/04 02:55:01;;;;;;;8.83;6.43;;;1.40;99.90;;;;;;5008973;28;20206;-90
2021/01/04 02:58:04;;;;;;;10.67;6.20;;;1.40;99.90;;;;;;5032768;28;20186;-90
2021/01/04 03:00:33;;;;;;;10.63;7.07;;;1.40;99.90;;;;;;5006035;28;20251;-92
2021/01/04 03:03:03;;;;;;;10.43;6.77;;;1.40;99.90;;;;;;5032482;28;20203;-93
2021/01/04 03:05:31;;;;;;;9.90;6.70;;;1.40;99.90;;;;;;5009274;28;20657;-90
2021/01/04 03:08:10;;;;;;;9.43;6.73;;;1.40;99.90;;;;;;5032985;28;20310;-91
2021/01/04 03:10:51;;;;;;;11.47;7.47;;;1.40;99.90;;;;;;5010018;28;20285;-90
2021/01/04 03:14:01;;;;;;;10.93;6.60;;;1.40;99.90;;;;;;5032658;28;20203;-91
2021/01/04 03:16:51;;;;;;;10.53;6.90;;;1.40;99.90;;;;;;5008756;28;20262;-90
2021/01/04 03:19:32;;;;;;;12.87;7.10;;;1.40;99.90;;;;;;5016055;28;20203;-94
2021/01/04 03:22:08;;;;;;;11.77;7.73;;;1.40;99.90;;;;;;5013036;28;20175;-90
2021/01/04 03:24:35;;;;;;;11.00;7.23;;;1.40;99.90;;;;;;5009568;28;20217;-91
2021/01/04 03:27:20;;;;;;;14.70;7.30;;;1.50;99.90;;;;;;5032348;28;20178;-91
2021/01/04 03:29:45;;;;;;;12.57;7.57;;;1.50;99.90;;;;;;5011015;28;20182;-91
2021/01/04 03:32:11;;;;;;;12.83;8.10;;;1.50;99.90;;;;;;5031938;28;20301;-89
2021/01/04 03:34:38;;;;;;;12.03;7.47;;;1.50;99.90;;;;;;5009607;28;20212;-91
2021/01/04 03:37:06;;;;;;;11.80;7.50;;;1.40;99.90;;;;;;5032127;28;20214;-90
2021/01/04 03:39:44;;;;;;;10.80;7.20;;;1.40;99.90;;;;;;5009017;28;20180;-89
2021/01/04 03:42:14;;;;;;;15.50;8.07;;;1.50;99.90;;;;;;5032047;28;20190;-91
2021/01/04 03:44:41;;;;;;;13.40;7.87;;;1.50;99.90;;;;;;5009525;28;20230;-91
2021/01/04 03:47:07;;;;;;;13.60;7.57;;;1.50;99.90;;;;;;5031870;28;20637;-92
2021/01/04 03:49:36;;;;;;;12.43;7.93;;;1.50;99.90;;;;;;5008822;28;20532;-92
2021/01/04 03:52:11;;;;;;;11.43;7.70;;;1.50;99.90;;;;;;5031947;28;20202;-91
2021/01/04 03:55:05;;;;;;;12.70;8.00;;;1.50;99.90;;;;;;5009149;28;20194;-90
2021/01/04 03:57:31;;;;;;;15.47;8.10;;;1.50;99.90;;;;;;5015293;28;20180;-91
2021/01/04 04:00:08;;;;;;;13.70;7.23;;;1.50;99.90;;;;;;5031723;28;20221;-90
2021/01/04 04:02:34;;;;;;;11.17;7.30;;;1.50;99.90;;;;;;5008275;28;20192;-91
2021/01/04 04:05:02;;;;;;;12.83;7.50;;;1.60;99.90;;;;;;5015129;28;20684;-93
2021/01/04 04:07:28;;;;;;;10.20;7.07;;;1.50;99.90;;;;;;5008287;28;20175;-90
2021/01/04 04:09:56;;;;;;;11.50;7.17;;;1.60;99.90;;;;;;5015305;28;20623;-91
2021/01/04 04:12:24;;;;;;;13.60;7.67;;;1.50;99.90;;;;;;5014819;28;20171;-91
2021/01/04 04:14:52;;;;;;;15.23;7.73;;;1.50;99.90;;;;;;5014910;28;20329;-92
2021/01/04 04:17:19;;;;;;;12.37;7.60;;;1.50;99.90;;;;;;5014950;28;20222;-90
2021/01/04 04:19:47;;;;;;;13.70;7.63;;;1.50;99.90;;;;;;5009957;28;20176;-93
2021/01/04 04:22:25;;;;;;;11.33;6.93;;;1.50;99.90;;;;;;5014798;28;20171;-89
2021/01/04 04:25:16;;;;;;;13.27;7.57;;;1.50;99.90;;;;;;5010469;28;20260;-91
2021/01/04 04:27:46;;;;;;;12.53;6.63;;;1.50;99.90;;;;;;5014608;28;20574;-93
2021/01/04 04:30:15;;;;;;;9.10;6.07;;;1.60;99.90;;;;;;5014556;28;20170;-92
2021/01/04 04:32:42;;;;;;;10.07;6.67;;;1.60;99.90;;;;;;5008856;28;20199;-92
2021/01/04 04:35:26;;;;;;;11.07;7.00;;;1.60;99.90;;;;;;5015659;28;20296;-90
2021/01/04 04:37:55;;;;;;;11.23;6.23;;;1.50;99.90;;;;;;5010744;28;20166;-89
2021/01/04 04:40:38;;;;;;;10.90;6.80;;;1.60;99.90;;;;;;5014316;28;20304;-91
2021/01/04 04:43:12;;;;;;;9.53;6.43;;;1.50;99.90;;;;;;5014045;28;20570;-91
2021/01/04 04:45:41;;;;;;;9.03;6.30;;;1.50;99.90;;;;;;5008630;28;20176;-92
2021/01/04 04:48:46;;;;;;;9.73;5.83;;;1.60;99.90;;;;;;5014483;28;20178;-91
2021/01/04 04:51:33;;;;;;;11.67;6.37;;;1.60;99.90;;;;;;5013002;28;20173;-92
2021/01/04 04:54:12;;;;;;;13.90;6.20;;;1.60;99.90;;;;;;5011037;28;20200;-91
2021/01/04 04:57:19;;;;;;;9.60;5.97;;;1.60;99.90;;;;;;5008174;28;20183;-93
2021/01/04 05:00:31;;;;;;;7.87;5.43;;;1.60;99.90;;;;;;5014029;28;20174;-91
2021/01/04 05:06:26;;;;;;;8.43;5.00;;;1.60;99.90;;;;;;5015019;28;20183;-89
2021/01/04 05:09:15;;;;;;;7.30;5.07;;;1.60;99.90;;;;;;5010084;28;20177;-90
2021/01/04 05:12:14;;;;;;;7.00;5.00;;;1.60;99.90;;;;;;5013986;28;20181;-90
2021/01/04 05:15:02;;;;;;;8.77;5.10;;;1.60;99.90;;;;;;5002474;28;20203;-91
2021/01/04 05:18:05;;;;;;;6.83;4.90;;;1.60;99.90;;;;;;4957456;28;20181;-90
2021/01/04 05:20:55;;;;;;;7.03;4.57;;;1.60;99.90;;;;;;5013661;28;20178;-91
2021/01/04 05:23:53;;;;;;;6.57;4.23;;;1.60;99.90;;;;;;5013289;28;20704;-91
2021/01/04 05:26:40;;;;;;;7.00;4.53;;;1.60;99.90;;;;;;5013484;28;20178;-90
2021/01/04 05:29:14;;;;;;;6.37;4.70;;;1.60;99.90;;;;;;5011555;28;20175;-93
2021/01/04 05:35:12;;;;;;;7.67;4.93;;;1.60;99.90;;;;;;5014803;28;20170;-94
2021/01/04 05:38:12;;;;;;;5.53;4.37;;;1.60;99.90;;;;;;5007748;28;20208;-91
2021/01/04 05:41:15;;;;;;;5.80;4.13;;;1.60;99.90;;;;;;5013324;28;20222;-92
2021/01/04 05:44:08;;;;;;;6.07;4.90;;;1.60;99.90;;;;;;5012285;28;20222;-91
2021/01/04 05:47:02;;;;;;;5.93;4.27;;;1.60;99.90;;;;;;5013334;28;20200;-89
2021/01/04 05:49:32;;;;;;;5.97;4.10;;;1.60;99.90;;;;;;4993539;28;20194;-93
2021/01/04 05:51:58;;;;;;;6.27;5.10;;;1.60;99.90;;;;;;4993649;28;20182;-93
2021/01/04 05:54:33;;;;;;;6.33;4.40;;;1.60;99.90;;;;;;4994735;28;20196;-92
2021/01/04 05:57:10;;;;;;;6.23;4.60;;;1.60;99.90;;;;;;4990820;28;20172;-92
2021/01/04 05:59:56;;;;;;;6.13;4.17;;;1.60;99.90;;;;;;4987541;28;20168;-91
2021/01/04 06:05:17;;;;;;;5.73;4.47;;;1.60;99.90;;;;;;4994924;28;20282;-91
2021/01/04 06:07:54;;;;;;;5.43;4.10;;;1.60;99.90;;;;;;4988568;28;20207;-90
2021/01/04 06:10:28;;;;;;;5.27;4.10;;;1.60;99.90;;;;;;4993511;28;20228;-90
2021/01/04 06:13:19;;;;;;;6.67;4.43;;;1.60;99.90;;;;;;4993517;28;20198;-91
2021/01/04 06:15:46;;;;;;;4.20;3.50;;;1.60;99.90;;;;;;4993421;28;20180;-90
2021/01/04 06:18:28;;;;;;;5.27;3.70;;;1.60;99.90;;;;;;4993357;28;20168;-91
2021/01/04 06:21:34;;;;;;;4.37;3.77;;;1.60;99.90;;;;;;4994710;28;20202;-93
2021/01/04 06:24:03;;;;;;;5.27;4.00;;;1.60;99.90;;;;;;4915858;29;20217;-91
2021/01/04 06:26:39;;;;;;;6.50;3.80;;;1.60;99.90;;;;;;4997285;28;20189;-91
2021/01/04 06:29:08;;;;;;;4.17;3.33;;;1.60;99.90;;;;;;4995209;28;20259;-91
2021/01/04 06:31:40;;;;;;;4.43;3.53;;;1.60;99.90;;;;;;4990875;28;20542;-95
2021/01/04 06:34:22;;;;;;;8.17;3.70;;;1.60;99.90;;;;;;4996962;28;20604;-91
2021/01/04 06:36:55;;;;;;;4.83;3.50;;;1.60;99.90;;;;;;4992822;28;20189;-88
2021/01/04 06:39:33;;;;;;;4.17;3.20;;;1.60;99.90;;;;;;4996932;28;20639;-92
2021/01/04 06:42:20;;;;;;;5.37;3.83;;;1.60;99.90;;;;;;4997012;28;20187;-92
2021/01/04 06:45:02;;;;;;;4.40;3.20;;;1.50;99.90;;;;;;4991608;28;20231;-93
2021/01/04 06:47:58;;;;;;;5.33;3.50;;;1.50;99.90;;;;;;4996838;28;20180;-91
2021/01/04 06:51:03;;;;;;;3.93;3.40;;;1.50;99.90;;;;;;4996665;28;20321;-91
2021/01/04 06:53:39;;;;;;;4.47;3.60;;;1.50;99.90;;;;;;4995103;28;20207;-90
2021/01/04 06:56:27;;;;;;;5.10;3.30;;;1.50;99.90;;;;;;4996718;28;20263;-92
2021/01/04 06:59:32;;;;;;;4.73;3.50;;;1.50;99.90;;;;;;4996722;28;20185;-89
2021/01/04 07:02:40;;;;;;;4.77;3.30;;;1.50;99.90;;;;;;4996729;28;20658;-93
2021/01/04 07:05:14;;;;;;;5.10;3.53;;;1.50;99.90;;;;;;4996655;28;20211;-92
2021/01/04 07:08:17;;;;;;;3.57;2.90;;;1.50;99.90;;;;;;4996523;28;20171;-93
2021/01/04 07:11:22;;;;;;;3.30;2.87;;;1.50;99.90;;;;;;4996584;28;20587;-92
2021/01/04 07:14:56;;;;;;;4.23;3.20;;;1.50;99.90;;;;;;4996267;28;20218;-91
2021/01/04 07:18:13;;;;;;;3.83;3.17;;;1.40;99.90;;;;;;4937676;29;20193;-90
2021/01/04 07:21:09;;;;;;;4.30;3.03;;;1.50;99.90;;;;;;4900571;29;20319;-94
2021/01/04 07:24:14;;;;;;;4.57;2.97;;;1.40;99.90;;;;;;4995963;28;20204;-91
2021/01/04 07:27:06;;;;;;;3.70;2.97;;;1.40;99.90;;;;;;4996195;28;20186;-92
2021/01/04 07:30:05;;;;;;;3.60;3.00;;;1.40;99.90;;;;;;4996213;28;20179;-92
2021/01/04 07:33:21;;;;;;;3.63;3.00;;;1.40;99.90;;;;;;4996073;28;20179;-91
2021/01/04 07:36:22;;;;;;;3.67;3.17;;;1.40;99.90;;;;;;4937579;29;20204;-90
2021/01/04 07:42:50;;;;;;;4.80;2.93;;;1.40;99.90;;;;;;4937537;29;20158;-91
2021/01/04 07:45:56;;;;;;;4.57;2.87;;;1.40;99.90;;;;;;4899569;29;20313;-91
2021/01/04 07:48:44;;;;;;;4.13;3.20;;;1.40;99.90;;;;;;4912800;29;20189;-94
2021/01/04 07:51:27;;;;;;;5.23;3.10;;;1.40;99.90;;;;;;4902621;29;20245;-93
2021/01/04 07:54:08;;;;;;;4.87;3.43;;;1.40;99.90;;;;;;4918528;29;20202;-91
2021/01/04 07:57:13;;;;;;;3.50;2.90;;;1.40;99.90;;;;;;4918057;29;20180;-91
2021/01/04 07:59:58;;;;;;;5.57;3.07;;;1.40;99.90;;;;;;4979402;28;20168;-90
2021/01/04 08:02:45;;;;;;;3.67;3.10;;;1.40;99.90;;;;;;4979069;28;20259;-90
2021/01/04 08:05:17;;;;;;;5.33;3.63;;;1.40;99.90;;;;;;4978878;28;20226;-90
2021/01/04 08:07:52;;;;;;;4.77;3.73;;;1.30;99.90;;;;;;4978908;28;20162;-91
2021/01/04 08:10:56;;;;;;;4.87;3.43;;;1.30;99.90;;;;;;4979076;28;20531;-92
2021/01/04 08:14:00;;;;;;;7.50;5.47;;;1.30;99.90;;;;;;4978908;28;20194;-92
2021/01/04 08:16:31;;;;;;;8.90;5.80;;;1.30;99.90;;;;;;4978914;28;20231;-90
2021/01/04 08:19:01;;;;;;;20.97;12.47;;;1.30;99.90;;;;;;4978892;28;20188;-90
2021/01/04 08:21:39;;;;;;;5.83;4.50;;;1.30;99.90;;;;;;4978932;28;20180;-89
2021/01/04 08:24:39;;;;;;;6.87;5.03;;;1.30;99.90;;;;;;4978655;28;20269;-92
2021/01/04 08:27:23;;;;;;;5.93;4.47;;;1.30;99.90;;;;;;4996912;28;20179;-91
2021/01/04 08:30:29;;;;;;;5.60;4.87;;;1.30;99.90;;;;;;4979213;28;20164;-91
2021/01/04 08:32:58;;;;;;;4.37;3.30;;;1.30;99.90;;;;;;4978753;28;20293;-93
2021/01/04 08:35:31;;;;;;;4.17;3.40;;;1.30;99.90;;;;;;4978609;28;20178;-93
2021/01/04 08:38:19;;;;;;;4.73;3.40;;;1.40;99.90;;;;;;4978699;28;20714;-94
2021/01/04 08:41:31;;;;;;;4.67;3.63;;;1.30;99.90;;;;;;4978339;28;20183;-91
2021/01/04 08:47:33;;;;;;;3.53;3.07;;;1.30;99.90;;;;;;5015386;28;20221;-93
2021/01/04 08:50:49;;;;;;;4.70;3.50;;;1.30;99.90;;;;;;4994694;28;20652;-92
2021/01/04 08:53:34;;;;;;;4.70;3.40;;;1.30;99.90;;;;;;4994981;28;20334;-92
2021/01/04 09:02:41;;;;;;;3.83;3.43;;;1.30;99.90;;;;;;4995864;28;20175;-93
2021/01/04 09:05:14;;;;;;;6.50;4.90;;;1.30;99.90;;;;;;4994527;28;20217;-91
2021/01/04 09:10:46;;;;;;;3.83;3.20;;;1.30;99.90;;;;;;4995646;28;20190;-92
2021/01/04 09:13:40;;;;;;;3.77;3.00;;;1.30;99.90;;;;;;4994673;28;20314;-93
2021/01/04 09:16:46;;;;;;;3.83;3.40;;;1.40;99.90;;;;;;4994106;28;20248;-92
2021/01/04 09:19:24;;;;;;;3.50;3.20;;;1.40;99.90;;;;;;4993884;28;20190;-89
2021/01/04 09:22:20;;;;;;;4.27;3.27;;;1.40;99.90;;;;;;4994341;28;20181;-90
2021/01/04 09:24:54;;;;;;;4.73;3.00;;;1.40;99.90;;;;;;4995101;28;20220;-92
2021/01/04 09:27:36;;;;;;;4.03;3.00;;;1.40;99.90;;;;;;4994228;28;20182;-90
2021/01/04 09:30:10;;;;;;;6.80;4.97;;;1.30;99.90;;;;;;4994121;28;20178;-90
2021/01/04 09:32:42;;;;;;;3.47;3.07;;;1.40;99.90;;;;;;4993861;28;20181;-92
2021/01/04 09:35:23;;;;;;;5.70;3.80;;;1.40;99.90;;;;;;5003803;28;20189;-91
2021/01/04 09:38:23;;;;;;;3.80;3.00;;;1.40;99.90;;;;;;5013711;28;20541;-91
2021/01/04 09:40:54;;;;;;;3.60;2.90;;;1.40;99.90;;;;;;4957198;28;20235;-89
2021/01/04 09:43:27;;;;;;;4.47;3.83;;;1.40;99.90;;;;;;4970996;28;20262;-93
2021/01/04 09:46:06;;;;;;;3.60;3.03;;;1.40;99.90;;;;;;5009463;28;20583;-93
2021/01/04 09:49:04;;;;;;;4.07;3.20;;;1.40;99.90;;;;;;5003473;28;20214;-90
2021/01/04 09:51:59;;;;;;;4.33;3.43;;;1.40;99.90;;;;;;4993512;28;20648;-92
2021/01/04 09:55:03;;;;;;;4.47;3.33;;;1.40;99.90;;;;;;4993690;28;20276;-92
2021/01/04 09:57:40;;;;;;;4.20;3.07;;;1.40;99.90;;;;;;4994123;28;20224;-94
2021/01/04 10:00:29;;;;;;;3.93;2.93;;;1.50;99.90;;;;;;4993633;28;20540;-93
2021/01/04 10:03:34;;;;;;;4.97;3.20;;;1.40;99.90;;;;;;4991982;28;20213;-93
2021/01/04 10:06:39;;;;;;;3.50;2.80;;;1.40;99.90;;;;;;4997695;28;20268;-90
2021/01/04 10:09:14;;;;;;;3.43;2.60;;;1.40;99.90;;;;;;4995550;28;20174;-93
2021/01/04 10:11:48;;;;;;;4.40;3.50;;;1.40;99.90;;;;;;4992145;28;20261;-92
2021/01/04 10:14:18;;;;;;;4.47;3.37;;;1.40;99.90;;;;;;4997478;28;20290;-93
2021/01/04 10:16:54;;;;;;;5.27;3.90;;;1.40;99.90;;;;;;4992531;28;20179;-93
2021/01/04 10:19:43;;;;;;;7.80;5.37;;;1.40;99.90;;;;;;4997836;28;20171;-93
2021/01/04 10:25:40;;;;;;;3.27;2.97;;;1.30;99.90;;;;;;4998031;28;20293;-90
2021/01/04 10:28:08;;;;;;;4.77;3.47;;;1.30;99.90;;;;;;4995432;28;20537;-93
2021/01/04 10:30:45;;;;;;;6.77;4.90;;;1.30;99.90;;;;;;4991255;28;20246;-92
2021/01/04 10:33:52;;;;;;;5.03;3.63;;;1.30;99.90;;;;;;4997574;28;20226;-92
2021/01/04 10:36:28;;;;;;;7.90;6.20;;;1.20;99.90;;;;;;4997054;28;20183;-92
2021/01/04 10:39:40;;;;;;;7.03;5.00;;;1.20;99.90;;;;;;4994091;28;20171;-93
2021/01/04 10:42:43;;;;;;;11.47;8.90;;;1.20;99.90;;;;;;4997335;28;20203;-93
2021/01/04 10:45:20;;;;;;;10.17;7.60;;;1.10;99.90;;;;;;4995322;28;20227;-92
2021/01/04 10:48:32;;;;;;;9.27;7.47;;;1.10;99.90;;;;;;4992819;28;20255;-91
2021/01/04 10:51:30;;;;;;;5.30;4.27;;;1.10;99.90;;;;;;4993668;28;20211;-92
2021/01/04 10:54:16;;;;;;;5.07;4.13;;;1.10;99.90;;;;;;4993668;28;20252;-93
2021/01/04 10:57:05;;;;;;;5.70;4.53;;;1.10;99.90;;;;;;4991781;28;20241;-93
2021/01/04 11:03:24;;;;;;;4.03;3.47;;;1.10;99.90;;;;;;4997879;28;20294;-92
2021/01/04 11:06:00;;;;;;;4.57;3.40;;;1.10;99.90;;;;;;4992781;28;20223;-92
2021/01/04 11:08:33;;;;;;;4.33;3.60;;;1.20;99.90;;;;;;4996944;28;20166;-93
2021/01/04 11:11:27;;;;;;;4.50;3.67;;;1.10;99.90;;;;;;4996901;28;20221;-95
2021/01/04 11:14:11;;;;;;;3.67;3.20;;;1.20;99.90;;;;;;4992243;28;20204;-91
2021/01/04 11:16:51;;;;;;;4.83;3.83;;;1.20;99.90;;;;;;4996864;28;20170;-92
2021/01/04 11:19:54;;;;;;;3.80;3.20;;;1.20;99.90;;;;;;4996990;28;20192;-93
2021/01/04 11:22:34;;;;;;;3.90;3.50;;;1.20;99.90;;;;;;4996753;28;20174;-91
2021/01/04 11:25:07;;;;;;;3.80;3.00;;;1.20;99.90;;;;;;4996581;28;20625;-92
2021/01/04 11:28:07;;;;;;;4.00;3.30;;;1.20;99.90;;;;;;4990246;28;20194;-93
2021/01/04 11:30:46;;;;;;;4.07;3.40;;;1.30;99.90;;;;;;4996385;28;20179;-93
2021/01/04 11:33:15;;;;;;;2.87;2.47;;;1.20;99.90;;;;;;4996445;28;20198;-94
2021/01/04 11:35:41;;;;;;;4.43;3.00;;;1.30;99.90;;;;;;4991196;28;20171;-92
2021/01/04 11:38:11;;;;;;;5.00;3.03;;;1.30;99.90;;;;;;4996215;28;20229;-92
2021/01/04 11:40:39;;;;;;;6.40;4.50;;;1.30;99.90;;;;;;4990313;28;20171;-92
2021/01/04 11:43:11;;;;;;;9.10;5.27;;;1.20;99.90;;;;;;4995958;28;20200;-91
2021/01/04 11:45:41;;;;;;;5.40;3.57;;;1.30;99.90;;;;;;4970528;28;20366;-92
2021/01/04 11:48:09;;;;;;;9.27;5.10;;;1.20;99.90;;;;;;4976851;28;20180;-93
2021/01/04 11:50:35;;;;;;;5.83;3.57;;;1.30;99.90;;;;;;4970562;28;20212;-92
2021/01/04 11:53:03;;;;;;;4.90;3.40;;;1.30;99.90;;;;;;4976290;28;20228;-92
2021/01/04 11:55:39;;;;;;;5.23;3.87;;;1.30;99.90;;;;;;4970262;28;20517;-92
2021/01/04 11:58:11;;;;;;;3.20;2.77;;;1.30;99.90;;;;;;4977152;28;20212;-91
2021/01/04 12:00:46;;;;;;;2.93;2.60;;;1.30;99.90;;;;;;4970264;28;20259;-92
2021/01/04 12:03:12;;;;;;;2.80;2.37;;;1.30;99.90;;;;;;4976478;28;20238;-92
2021/01/04 12:05:51;;;;;;;3.97;3.50;;;1.40;99.90;;;;;;4970485;28;20289;-94
2021/01/04 12:08:40;;;;;;;5.40;4.00;;;1.40;99.90;;;;;;4976384;28;20204;-92
2021/01/04 12:11:10;;;;;;;4.80;4.30;;;1.30;99.90;;;;;;4974480;28;20167;-92
2021/01/04 12:13:40;;;;;;;3.50;2.97;;;1.40;99.90;;;;;;4970370;28;20235;-94
2021/01/04 12:16:11;;;;;;;3.67;2.93;;;1.40;99.90;;;;;;4976350;28;20174;-92
2021/01/04 12:18:37;;;;;;;3.67;2.90;;;1.40;99.90;;;;;;4970825;28;20165;-90
2021/01/04 12:21:19;;;;;;;3.07;2.57;;;1.40;99.90;;;;;;4976643;28;20178;-93
2021/01/04 12:23:45;;;;;;;4.13;3.03;;;1.40;99.90;;;;;;4972214;28;20216;-93
2021/01/04 12:26:22;;;;;;;4.83;3.77;;;1.40;99.90;;;;;;4976299;28;20208;-92
2021/01/04 12:28:49;;;;;;;4.40;2.93;;;1.40;99.90;;;;;;4970817;28;20180;-94
2021/01/04 12:31:21;;;;;;;4.93;3.47;;;1.40;99.90;;;;;;4975621;28;20639;-92
2021/01/04 12:33:52;;;;;;;5.43;3.83;;;1.40;99.90;;;;;;4971867;28;20208;-93
2021/01/04 12:36:29;;;;;;;4.87;3.57;;;1.40;99.90;;;;;;4978256;28;20177;-94
2021/01/04 12:38:56;;;;;;;7.57;3.83;;;1.40;99.90;;;;;;4992017;28;20238;-93
2021/01/04 12:41:22;;;;;;;3.67;3.20;;;1.40;99.90;;;;;;4995418;28;20186;-93
2021/01/04 12:43:48;;;;;;;3.83;3.37;;;1.40;99.90;;;;;;4998621;28;20240;-93
2021/01/04 12:46:16;;;;;;;3.43;3.03;;;1.40;99.90;;;;;;5014032;28;20593;-93
2021/01/04 12:49:17;;;;;;;3.40;3.10;;;1.40;99.90;;;;;;5009625;28;20167;-93
2021/01/04 12:51:51;;;;;;;3.80;3.23;;;1.40;99.90;;;;;;5008300;28;20245;-94
2021/01/04 12:54:20;;;;;;;3.90;3.30;;;1.40;99.90;;;;;;4995983;28;20209;-93
2021/01/04 12:56:56;;;;;;;4.40;3.60;;;1.40;99.90;;;;;;4990802;28;20261;-94
2021/01/04 12:59:27;;;;;;;4.33;3.50;;;1.40;99.90;;;;;;4995506;28;20659;-94
2021/01/04 13:02:09;;;;;;;4.80;3.67;;;1.40;99.90;;;;;;4994951;28;20206;-92
2021/01/04 13:04:42;;;;;;;6.23;4.63;;;1.50;99.90;;;;;;5002979;28;20213;-94
2021/01/04 13:07:11;;;;;;;5.10;4.03;;;1.50;99.90;;;;;;5014771;28;20179;-92
2021/01/04 13:09:47;;;;;;;5.60;3.50;;;1.40;99.90;;;;;;5008626;28;20180;-92
2021/01/04 13:13:03;;;;;;;5.30;4.07;;;1.40;99.90;;;;;;5014763;28;20268;-92
2021/01/04 13:15:38;;;;;;;4.97;3.93;;;1.40;99.90;;;;;;5007411;28;20241;-94
2021/01/04 13:18:10;;;;;;;6.83;4.87;;;1.40;99.90;;;;;;5014464;28;20649;-93
2021/01/04 13:20:50;;;;;;;6.23;4.07;;;1.40;99.90;;;;;;5008069;28;20186;-94
2021/01/04 13:23:20;;;;;;;5.97;4.70;;;1.40;99.90;;;;;;5013890;28;20204;-93
2021/01/04 13:25:55;;;;;;;5.80;4.70;;;1.40;99.90;;;;;;5009527;28;20680;-93
2021/01/04 13:28:28;;;;;;;4.67;4.17;;;1.40;99.90;;;;;;5014825;28;20178;-94
2021/01/04 13:30:55;;;;;;;4.83;3.97;;;1.40;99.90;;;;;;5014805;28;20212;-94
2021/01/04 13:33:46;;;;;;;5.73;4.07;;;1.40;99.90;;;;;;5014842;28;20563;-93
2021/01/04 13:36:40;;;;;;;5.53;3.90;;;1.50;99.90;;;;;;5014504;28;20265;-94
2021/01/04 13:39:25;;;;;;;5.70;4.90;;;1.50;99.90;;;;;;5012641;28;20175;-93
2021/01/04 13:42:00;;;;;;;6.80;6.10;;;1.50;99.90;;;;;;5010694;28;20171;-92
2021/01/04 13:44:33;;;;;;;6.50;4.60;;;1.50;99.90;;;;;;5017697;28;20238;-93
2021/01/04 13:47:08;;;;;;;6.17;4.33;;;1.40;99.90;;;;;;5015289;28;20233;-94
2021/01/04 13:49:39;;;;;;;4.93;4.17;;;1.40;99.90;;;;;;5009921;28;20173;-93
2021/01/04 13:52:19;;;;;;;5.77;4.47;;;1.40;99.90;;;;;;5016244;28;20634;-93
2021/01/04 13:54:55;;;;;;;6.67;4.20;;;1.40;99.90;;;;;;5010375;28;20256;-93
2021/01/04 13:57:36;;;;;;;6.13;4.50;;;1.40;99.90;;;;;;5005485;28;20188;-94
2021/01/04 14:00:06;;;;;;;9.30;5.43;;;1.40;99.90;;;;;;5014217;28;20218;-94
2021/01/04 14:02:34;;;;;;;6.17;4.40;;;1.40;99.90;;;;;;5007462;28;20183;-93
2021/01/04 14:05:08;;;;;;;6.87;4.20;;;1.40;99.90;;;;;;5014532;28;20240;-94
2021/01/04 14:07:44;;;;;;;6.80;4.60;;;1.40;99.90;;;;;;5007812;28;20177;-92
2021/01/04 14:10:24;;;;;;;5.13;4.43;;;1.50;99.90;;;;;;5014736;28;20172;-93
2021/01/04 14:12:54;;;;;;;5.60;4.20;;;1.40;99.90;;;;;;5010313;28;20198;-94
2021/01/04 14:15:39;;;;;;;5.23;4.40;;;1.50;99.90;;;;;;5014500;28;20193;-93
2021/01/04 14:18:11;;;;;;;5.60;4.30;;;1.50;99.90;;;;;;5014802;28;20173;-93
2021/01/04 14:20:41;;;;;;;5.03;3.77;;;1.50;99.90;;;;;;5008817;28;20187;-93
2021/01/04 14:23:08;;;;;;;5.43;3.90;;;1.40;99.90;;;;;;5014654;28;20203;-95
2021/01/04 14:25:42;;;;;;;6.33;4.67;;;1.40;99.90;;;;;;5008061;28;20191;-92
2021/01/04 14:31:48;;;;;;;5.40;4.57;;;1.40;99.90;;;;;;4995321;28;20217;-94
2021/01/04 14:34:20;;;;;;;6.10;4.40;;;1.40;99.90;;;;;;4993676;28;20656;-94
2021/01/04 14:37:06;;;;;;;6.73;5.10;;;1.40;99.90;;;;;;4989905;28;20168;-93
2021/01/04 14:39:50;;;;;;;5.10;4.30;;;1.40;99.90;;;;;;4994119;28;20165;-94
2021/01/04 14:42:19;;;;;;;6.63;4.83;;;1.40;99.90;;;;;;4993707;28;20622;-93
2021/01/04 14:44:59;;;;;;;6.73;4.93;;;1.40;99.90;;;;;;4988512;28;20314;-96
2021/01/04 14:47:25;;;;;;;6.20;5.00;;;1.40;99.90;;;;;;4997277;28;20190;-95
2021/01/04 14:49:51;;;;;;;6.37;5.17;;;1.40;99.90;;;;;;5014635;28;20167;-95
2021/01/04 14:52:19;;;;;;;7.40;5.53;;;1.40;99.90;;;;;;5017325;28;20167;-92
2021/01/04 14:55:05;;;;;;;7.83;5.80;;;1.40;99.90;;;;;;5013195;28;20203;-96
2021/01/04 14:57:32;;;;;;;9.33;6.23;;;1.30;99.90;;;;;;5017623;28;20167;-93
2021/01/04 15:00:01;;;;;;;9.23;6.47;;;1.40;99.90;;;;;;5017363;28;20168;-93
2021/01/04 15:02:44;;;;;;;7.27;5.90;;;1.30;99.90;;;;;;5010366;28;20174;-94
2021/01/04 15:05:10;;;;;;;6.83;5.50;;;1.40;99.90;;;;;;5016794;28;20206;-95
2021/01/04 15:07:41;;;;;;;6.13;5.40;;;1.40;99.90;;;;;;5010792;28;20262;-94